Strona główna
METAR-TAF:

METAR-TAF

Lotnisko :

Port lotniczy Poprad-Tatry

Poprad, Słowacja

Szerokość geograficzna: 49-04N, Długość geograficzna: 020-15E, wysokość: 694 m

Aktualna obserwacja pogody

Raport powstał 34 minut temu, godzina 02:00 UTC
Wiatr 5 kt od zachodnio-południowy zachód
Temperatura -1°C
Wilgotność 64%
Ciśnienie 1030 hPa
Widzialność 10 km lub więcej
Brak chmur poniżej 1500 m i brak chmur cumulonimbus

METAR: LZTT 060200Z 25005KT CAVOK M01/M07 Q1030

czas: 04:34 (02:34 UTC)

Prognoza

Raport powstał 3 godziny i 34 minut temu, godzina 23:00 UTC
Prognoza ważna od 06 godzina 00 UTC do 07 godzina 00 UTC
Wiatr 4 kt od zachód
Widzialność 10 km lub więcej
Brak chmur poniżej 1500 m i brak chmur cumulonimbus
Stopniowe zmiany
od 06 godzina 00 UTC do 06 godzina 02 UTC
Wiatr 2 kt z kierunków zmiennych
Stopniowe zmiany
od 06 godzina 10 UTC do 06 godzina 12 UTC
Wiatr 6 kt od południowo-południowy zachód

TAF: LZTT 052300Z 0600/0700 27004KT CAVOK BECMG 0600/0602 VRB02KT BECMG 0610/0612 21006KT

Obserwacja i prognoza pogody dla ponad 4000 lotnisk (raport METAR i TAF).

Dostępne stacje oznaczono żółtymi i czerwonymi punktami na mapie.

Najedź kursorem aby zobaczyć nazwę stacji.

Kliknij aby zobaczyć obserwacje i prognozy pogody.

Aby zmienić mapę: kliknij na zielony przycisk z czarnym krzyżykiem, aby powiększyć; na zielony przycisk z myślnikiem, aby pomniejszyć; na zielone strzałki, aby przejść do map sąsiednich.


METAR-TAF: